sensor_id;sensor_type;location;lat;lon;timestamp;P1;durP1;ratioP1;P2;durP2;ratioP2
51584;SDS011;37669;50.312;18.670;2022-12-29T00:01:38;34.47;;;17.50;;
51584;SDS011;37669;50.312;18.670;2022-12-29T00:04:05;31.27;;;16.48;;
51584;SDS011;37669;50.312;18.670;2022-12-29T00:06:33;30.88;;;16.52;;
51584;SDS011;37669;50.312;18.670;2022-12-29T00:09:00;26.17;;;16.02;;
51584;SDS011;37669;50.312;18.670;2022-12-29T00:11:27;29.45;;;15.52;;
51584;SDS011;37669;50.312;18.670;2022-12-29T00:13:54;33.50;;;17.33;;
51584;SDS011;37669;50.312;18.670;2022-12-29T00:16:41;29.27;;;16.63;;
51584;SDS011;37669;50.312;18.670;2022-12-29T00:19:09;33.08;;;17.00;;
51584;SDS011;37669;50.312;18.670;2022-12-29T00:21:51;37.35;;;16.38;;
51584;SDS011;37669;50.312;18.670;2022-12-29T00:24:35;30.38;;;16.52;;
51584;SDS011;37669;50.312;18.670;2022-12-29T00:27:20;35.83;;;18.17;;
51584;SDS011;37669;50.312;18.670;2022-12-29T00:30:07;29.73;;;16.92;;
51584;SDS011;37669;50.312;18.670;2022-12-29T00:32:53;41.17;;;15.75;;
51584;SDS011;37669;50.312;18.670;2022-12-29T00:35:38;32.35;;;16.10;;
51584;SDS011;37669;50.312;18.670;2022-12-29T00:38:10;32.53;;;16.92;;
51584;SDS011;37669;50.312;18.670;2022-12-29T00:40:55;29.35;;;16.08;;
51584;SDS011;37669;50.312;18.670;2022-12-29T00:43:39;28.70;;;16.45;;
51584;SDS011;37669;50.312;18.670;2022-12-29T00:46:24;26.55;;;14.95;;
51584;SDS011;37669;50.312;18.670;2022-12-29T00:48:52;29.75;;;15.48;;
51584;SDS011;37669;50.312;18.670;2022-12-29T00:51:37;31.15;;;15.27;;
51584;SDS011;37669;50.312;18.670;2022-12-29T00:54:04;30.90;;;15.55;;
51584;SDS011;37669;50.312;18.670;2022-12-29T00:56:31;28.20;;;15.57;;
51584;SDS011;37669;50.312;18.670;2022-12-29T00:58:59;23.98;;;14.50;;
51584;SDS011;37669;50.312;18.670;2022-12-29T01:01:27;22.60;;;13.07;;
51584;SDS011;37669;50.312;18.670;2022-12-29T01:03:55;34.85;;;15.18;;
51584;SDS011;37669;50.312;18.670;2022-12-29T01:06:23;25.98;;;14.50;;
51584;SDS011;37669;50.312;18.670;2022-12-29T01:08:50;27.92;;;14.35;;
51584;SDS011;37669;50.312;18.670;2022-12-29T01:11:38;25.00;;;12.55;;
51584;SDS011;37669;50.312;18.670;2022-12-29T01:14:04;36.95;;;14.15;;
51584;SDS011;37669;50.312;18.670;2022-12-29T01:16:31;26.83;;;14.70;;
51584;SDS011;37669;50.312;18.670;2022-12-29T01:19:00;25.08;;;14.38;;
51584;SDS011;37669;50.312;18.670;2022-12-29T01:21:27;26.15;;;15.13;;
51584;SDS011;37669;50.312;18.670;2022-12-29T01:23:54;25.98;;;11.23;;
51584;SDS011;37669;50.312;18.670;2022-12-29T01:26:21;22.33;;;11.73;;
51584;SDS011;37669;50.312;18.670;2022-12-29T01:28:48;17.15;;;11.25;;
51584;SDS011;37669;50.312;18.670;2022-12-29T01:31:15;17.75;;;9.90;;
51584;SDS011;37669;50.312;18.670;2022-12-29T01:33:43;18.38;;;9.52;;
51584;SDS011;37669;50.312;18.670;2022-12-29T01:36:12;30.05;;;8.65;;
51584;SDS011;37669;50.312;18.670;2022-12-29T01:38:40;22.52;;;9.65;;
51584;SDS011;37669;50.312;18.670;2022-12-29T01:41:08;13.43;;;7.90;;
51584;SDS011;37669;50.312;18.670;2022-12-29T01:43:41;17.08;;;9.02;;
51584;SDS011;37669;50.312;18.670;2022-12-29T01:46:13;14.98;;;8.93;;
51584;SDS011;37669;50.312;18.670;2022-12-29T01:48:49;13.88;;;8.98;;
51584;SDS011;37669;50.312;18.670;2022-12-29T01:51:22;13.35;;;10.32;;
51584;SDS011;37669;50.312;18.670;2022-12-29T01:53:51;18.70;;;8.93;;
51584;SDS011;37669;50.312;18.670;2022-12-29T01:56:19;14.50;;;8.93;;
51584;SDS011;37669;50.312;18.670;2022-12-29T01:58:48;14.85;;;8.63;;
51584;SDS011;37669;50.312;18.670;2022-12-29T02:01:22;18.92;;;9.20;;
51584;SDS011;37669;50.312;18.670;2022-12-29T02:03:49;15.35;;;9.57;;
51584;SDS011;37669;50.312;18.670;2022-12-29T02:06:19;16.17;;;9.50;;
51584;SDS011;37669;50.312;18.670;2022-12-29T02:08:52;13.93;;;9.18;;
51584;SDS011;37669;50.312;18.670;2022-12-29T02:11:21;16.23;;;10.30;;
51584;SDS011;37669;50.312;18.670;2022-12-29T02:13:52;14.98;;;9.68;;
51584;SDS011;37669;50.312;18.670;2022-12-29T02:16:29;11.98;;;8.50;;
51584;SDS011;37669;50.312;18.670;2022-12-29T02:19:12;18.58;;;9.82;;
51584;SDS011;37669;50.312;18.670;2022-12-29T02:22:15;14.43;;;9.23;;
51584;SDS011;37669;50.312;18.670;2022-12-29T02:24:58;16.35;;;10.05;;
51584;SDS011;37669;50.312;18.670;2022-12-29T02:30:44;17.05;;;9.90;;
51584;SDS011;37669;50.312;18.670;2022-12-29T02:33:21;16.42;;;10.38;;
51584;SDS011;37669;50.312;18.670;2022-12-29T02:35:57;15.80;;;10.48;;
51584;SDS011;37669;50.312;18.670;2022-12-29T02:38:38;14.57;;;10.02;;
51584;SDS011;37669;50.312;18.670;2022-12-29T02:41:16;16.75;;;10.88;;
51584;SDS011;37669;50.312;18.670;2022-12-29T02:43:49;17.42;;;10.45;;
51584;SDS011;37669;50.312;18.670;2022-12-29T02:46:23;18.20;;;10.52;;
51584;SDS011;37669;50.312;18.670;2022-12-29T02:48:55;22.80;;;10.00;;
51584;SDS011;37669;50.312;18.670;2022-12-29T02:51:33;16.95;;;10.88;;
51584;SDS011;37669;50.312;18.670;2022-12-29T02:54:05;16.45;;;9.85;;
51584;SDS011;37669;50.312;18.670;2022-12-29T02:56:50;18.50;;;10.05;;
51584;SDS011;37669;50.312;18.670;2022-12-29T02:59:18;15.95;;;9.73;;
51584;SDS011;37669;50.312;18.670;2022-12-29T03:01:55;17.00;;;10.63;;
51584;SDS011;37669;50.312;18.670;2022-12-29T03:05:00;25.60;;;11.30;;
51584;SDS011;37669;50.312;18.670;2022-12-29T03:07:47;14.05;;;9.35;;
51584;SDS011;37669;50.312;18.670;2022-12-29T03:10:26;14.88;;;10.10;;
51584;SDS011;37669;50.312;18.670;2022-12-29T03:13:01;21.83;;;10.43;;
51584;SDS011;37669;50.312;18.670;2022-12-29T03:15:51;18.27;;;11.27;;
51584;SDS011;37669;50.312;18.670;2022-12-29T03:18:39;12.85;;;9.63;;
51584;SDS011;37669;50.312;18.670;2022-12-29T03:21:12;16.95;;;10.68;;
51584;SDS011;37669;50.312;18.670;2022-12-29T03:23:45;15.95;;;10.57;;
51584;SDS011;37669;50.312;18.670;2022-12-29T03:26:16;13.98;;;9.82;;
51584;SDS011;37669;50.312;18.670;2022-12-29T03:28:47;17.15;;;10.35;;
51584;SDS011;37669;50.312;18.670;2022-12-29T03:31:19;13.70;;;9.48;;
51584;SDS011;37669;50.312;18.670;2022-12-29T03:33:50;13.25;;;9.13;;
51584;SDS011;37669;50.312;18.670;2022-12-29T03:36:21;19.15;;;9.30;;
51584;SDS011;37669;50.312;18.670;2022-12-29T03:38:57;13.60;;;10.05;;
51584;SDS011;37669;50.312;18.670;2022-12-29T03:41:28;16.90;;;10.25;;
51584;SDS011;37669;50.312;18.670;2022-12-29T03:43:58;13.68;;;9.25;;
51584;SDS011;37669;50.312;18.670;2022-12-29T03:46:25;24.15;;;11.50;;
51584;SDS011;37669;50.312;18.670;2022-12-29T03:48:53;22.23;;;13.45;;
51584;SDS011;37669;50.312;18.670;2022-12-29T03:51:20;21.27;;;11.15;;
51584;SDS011;37669;50.312;18.670;2022-12-29T03:53:47;18.48;;;11.10;;
51584;SDS011;37669;50.312;18.670;2022-12-29T03:56:14;22.05;;;11.20;;
51584;SDS011;37669;50.312;18.670;2022-12-29T03:58:42;18.65;;;11.80;;
51584;SDS011;37669;50.312;18.670;2022-12-29T04:01:09;20.35;;;11.45;;
51584;SDS011;37669;50.312;18.670;2022-12-29T04:03:36;19.42;;;10.77;;
51584;SDS011;37669;50.312;18.670;2022-12-29T04:06:05;17.80;;;10.85;;
51584;SDS011;37669;50.312;18.670;2022-12-29T04:08:32;20.05;;;10.65;;
51584;SDS011;37669;50.312;18.670;2022-12-29T04:10:59;14.75;;;10.63;;
51584;SDS011;37669;50.312;18.670;2022-12-29T04:13:26;17.30;;;11.38;;
51584;SDS011;37669;50.312;18.670;2022-12-29T04:15:53;16.85;;;11.25;;
51584;SDS011;37669;50.312;18.670;2022-12-29T04:18:20;14.32;;;10.15;;
51584;SDS011;37669;50.312;18.670;2022-12-29T04:20:48;27.85;;;11.23;;
51584;SDS011;37669;50.312;18.670;2022-12-29T04:23:29;24.85;;;10.23;;
51584;SDS011;37669;50.312;18.670;2022-12-29T04:25:57;15.70;;;10.68;;
51584;SDS011;37669;50.312;18.670;2022-12-29T04:28:25;15.02;;;10.13;;
51584;SDS011;37669;50.312;18.670;2022-12-29T04:30:52;20.65;;;11.15;;
51584;SDS011;37669;50.312;18.670;2022-12-29T04:33:20;15.20;;;11.00;;
51584;SDS011;37669;50.312;18.670;2022-12-29T04:35:47;19.52;;;10.80;;
51584;SDS011;37669;50.312;18.670;2022-12-29T04:38:15;21.40;;;10.85;;
51584;SDS011;37669;50.312;18.670;2022-12-29T04:40:44;18.50;;;11.07;;
51584;SDS011;37669;50.312;18.670;2022-12-29T04:43:11;15.45;;;11.38;;
51584;SDS011;37669;50.312;18.670;2022-12-29T04:45:38;21.27;;;10.95;;
51584;SDS011;37669;50.312;18.670;2022-12-29T04:48:09;19.27;;;11.25;;
51584;SDS011;37669;50.312;18.670;2022-12-29T04:50:36;16.45;;;10.52;;
51584;SDS011;37669;50.312;18.670;2022-12-29T04:53:03;16.48;;;9.88;;
51584;SDS011;37669;50.312;18.670;2022-12-29T04:55:31;20.60;;;10.60;;
51584;SDS011;37669;50.312;18.670;2022-12-29T04:57:59;18.35;;;11.02;;
51584;SDS011;37669;50.312;18.670;2022-12-29T05:00:26;18.88;;;11.55;;
51584;SDS011;37669;50.312;18.670;2022-12-29T05:02:54;18.98;;;10.65;;
51584;SDS011;37669;50.312;18.670;2022-12-29T05:05:21;19.15;;;11.68;;
51584;SDS011;37669;50.312;18.670;2022-12-29T05:07:48;22.23;;;11.57;;
51584;SDS011;37669;50.312;18.670;2022-12-29T05:10:15;19.30;;;11.00;;
51584;SDS011;37669;50.312;18.670;2022-12-29T05:12:42;21.17;;;10.80;;
51584;SDS011;37669;50.312;18.670;2022-12-29T05:15:11;16.20;;;10.85;;
51584;SDS011;37669;50.312;18.670;2022-12-29T05:17:39;13.30;;;8.98;;
51584;SDS011;37669;50.312;18.670;2022-12-29T05:20:07;16.05;;;10.10;;
51584;SDS011;37669;50.312;18.670;2022-12-29T05:22:34;21.05;;;10.70;;
51584;SDS011;37669;50.312;18.670;2022-12-29T05:25:01;24.27;;;11.05;;
51584;SDS011;37669;50.312;18.670;2022-12-29T05:27:29;17.05;;;10.20;;
51584;SDS011;37669;50.312;18.670;2022-12-29T05:29:56;16.58;;;9.90;;
51584;SDS011;37669;50.312;18.670;2022-12-29T05:32:24;19.90;;;10.88;;
51584;SDS011;37669;50.312;18.670;2022-12-29T05:34:51;18.92;;;9.63;;
51584;SDS011;37669;50.312;18.670;2022-12-29T05:39:44;19.98;;;10.98;;
51584;SDS011;37669;50.312;18.670;2022-12-29T05:42:11;14.80;;;10.02;;
51584;SDS011;37669;50.312;18.670;2022-12-29T05:44:38;17.27;;;10.57;;
51584;SDS011;37669;50.312;18.670;2022-12-29T05:47:05;16.55;;;10.45;;
51584;SDS011;37669;50.312;18.670;2022-12-29T05:49:33;22.92;;;11.75;;
51584;SDS011;37669;50.312;18.670;2022-12-29T05:52:00;18.95;;;10.85;;
51584;SDS011;37669;50.312;18.670;2022-12-29T05:54:27;27.95;;;11.05;;
51584;SDS011;37669;50.312;18.670;2022-12-29T05:56:54;16.25;;;10.60;;
51584;SDS011;37669;50.312;18.670;2022-12-29T05:59:21;23.13;;;10.27;;
51584;SDS011;37669;50.312;18.670;2022-12-29T06:01:48;21.25;;;10.20;;
51584;SDS011;37669;50.312;18.670;2022-12-29T06:04:15;20.92;;;11.18;;
51584;SDS011;37669;50.312;18.670;2022-12-29T06:06:44;18.27;;;11.18;;
51584;SDS011;37669;50.312;18.670;2022-12-29T06:09:11;24.88;;;12.38;;
51584;SDS011;37669;50.312;18.670;2022-12-29T06:11:38;19.75;;;11.07;;
51584;SDS011;37669;50.312;18.670;2022-12-29T06:14:06;25.52;;;12.32;;
51584;SDS011;37669;50.312;18.670;2022-12-29T06:16:33;15.13;;;10.68;;
51584;SDS011;37669;50.312;18.670;2022-12-29T06:19:01;18.08;;;11.52;;
51584;SDS011;37669;50.312;18.670;2022-12-29T06:21:28;17.63;;;10.98;;
51584;SDS011;37669;50.312;18.670;2022-12-29T06:23:56;20.35;;;11.93;;
51584;SDS011;37669;50.312;18.670;2022-12-29T06:26:23;20.85;;;11.85;;
51584;SDS011;37669;50.312;18.670;2022-12-29T06:28:51;16.33;;;11.23;;
51584;SDS011;37669;50.312;18.670;2022-12-29T06:31:18;16.08;;;10.40;;
51584;SDS011;37669;50.312;18.670;2022-12-29T06:33:45;20.63;;;11.68;;
51584;SDS011;37669;50.312;18.670;2022-12-29T06:36:12;21.35;;;11.95;;
51584;SDS011;37669;50.312;18.670;2022-12-29T06:38:39;19.02;;;10.82;;
51584;SDS011;37669;50.312;18.670;2022-12-29T06:41:07;21.50;;;11.90;;
51584;SDS011;37669;50.312;18.670;2022-12-29T06:43:34;18.50;;;11.15;;
51584;SDS011;37669;50.312;18.670;2022-12-29T06:46:03;25.38;;;13.05;;
51584;SDS011;37669;50.312;18.670;2022-12-29T06:48:30;30.42;;;12.57;;
51584;SDS011;37669;50.312;18.670;2022-12-29T06:50:57;18.88;;;11.93;;
51584;SDS011;37669;50.312;18.670;2022-12-29T06:53:24;28.20;;;12.55;;
51584;SDS011;37669;50.312;18.670;2022-12-29T06:55:51;26.67;;;13.43;;
51584;SDS011;37669;50.312;18.670;2022-12-29T06:58:20;31.77;;;14.50;;
51584;SDS011;37669;50.312;18.670;2022-12-29T07:00:47;27.77;;;13.05;;
51584;SDS011;37669;50.312;18.670;2022-12-29T07:03:14;25.77;;;14.25;;
51584;SDS011;37669;50.312;18.670;2022-12-29T07:05:41;28.30;;;15.82;;
51584;SDS011;37669;50.312;18.670;2022-12-29T07:08:09;31.27;;;16.65;;
51584;SDS011;37669;50.312;18.670;2022-12-29T07:10:36;27.48;;;17.27;;
51584;SDS011;37669;50.312;18.670;2022-12-29T07:13:03;32.67;;;17.63;;
51584;SDS011;37669;50.312;18.670;2022-12-29T07:15:31;30.88;;;15.73;;
51584;SDS011;37669;50.312;18.670;2022-12-29T07:17:58;23.67;;;13.82;;
51584;SDS011;37669;50.312;18.670;2022-12-29T07:20:25;26.65;;;13.85;;
51584;SDS011;37669;50.312;18.670;2022-12-29T07:22:53;19.58;;;12.18;;
51584;SDS011;37669;50.312;18.670;2022-12-29T07:25:20;17.83;;;12.20;;
51584;SDS011;37669;50.312;18.670;2022-12-29T07:27:47;21.08;;;12.48;;
51584;SDS011;37669;50.312;18.670;2022-12-29T07:30:15;23.40;;;13.30;;
51584;SDS011;37669;50.312;18.670;2022-12-29T07:32:43;19.35;;;13.10;;
51584;SDS011;37669;50.312;18.670;2022-12-29T07:35:10;31.58;;;15.13;;
51584;SDS011;37669;50.312;18.670;2022-12-29T07:37:37;24.35;;;14.05;;
51584;SDS011;37669;50.312;18.670;2022-12-29T07:40:05;36.25;;;14.95;;
51584;SDS011;37669;50.312;18.670;2022-12-29T07:42:33;23.25;;;13.88;;
51584;SDS011;37669;50.312;18.670;2022-12-29T07:45:00;23.50;;;14.75;;
51584;SDS011;37669;50.312;18.670;2022-12-29T07:47:27;24.85;;;15.25;;
51584;SDS011;37669;50.312;18.670;2022-12-29T07:49:56;23.08;;;15.13;;
51584;SDS011;37669;50.312;18.670;2022-12-29T07:52:23;24.77;;;15.88;;
51584;SDS011;37669;50.312;18.670;2022-12-29T07:54:50;36.45;;;16.45;;
51584;SDS011;37669;50.312;18.670;2022-12-29T07:57:17;28.50;;;17.45;;
51584;SDS011;37669;50.312;18.670;2022-12-29T07:59:44;30.42;;;16.98;;
51584;SDS011;37669;50.312;18.670;2022-12-29T08:02:11;25.50;;;14.68;;
51584;SDS011;37669;50.312;18.670;2022-12-29T08:04:38;32.30;;;16.58;;
51584;SDS011;37669;50.312;18.670;2022-12-29T08:07:07;24.90;;;16.05;;
51584;SDS011;37669;50.312;18.670;2022-12-29T08:09:34;27.55;;;15.98;;
51584;SDS011;37669;50.312;18.670;2022-12-29T08:12:01;28.23;;;16.25;;
51584;SDS011;37669;50.312;18.670;2022-12-29T08:14:28;59.63;;;17.83;;
51584;SDS011;37669;50.312;18.670;2022-12-29T08:16:55;32.03;;;15.27;;
51584;SDS011;37669;50.312;18.670;2022-12-29T08:19:22;31.98;;;15.30;;
51584;SDS011;37669;50.312;18.670;2022-12-29T08:21:49;28.52;;;16.73;;
51584;SDS011;37669;50.312;18.670;2022-12-29T08:24:17;30.15;;;17.10;;
51584;SDS011;37669;50.312;18.670;2022-12-29T08:26:44;27.95;;;16.83;;
51584;SDS011;37669;50.312;18.670;2022-12-29T08:29:12;36.38;;;17.27;;
51584;SDS011;37669;50.312;18.670;2022-12-29T08:31:39;34.63;;;16.63;;
51584;SDS011;37669;50.312;18.670;2022-12-29T08:34:06;35.95;;;16.25;;
51584;SDS011;37669;50.312;18.670;2022-12-29T08:36:33;21.90;;;15.63;;
51584;SDS011;37669;50.312;18.670;2022-12-29T08:39:00;36.10;;;15.70;;
51584;SDS011;37669;50.312;18.670;2022-12-29T08:41:28;30.20;;;16.42;;
51584;SDS011;37669;50.312;18.670;2022-12-29T08:43:55;34.70;;;18.40;;
51584;SDS011;37669;50.312;18.670;2022-12-29T08:46:23;53.20;;;30.45;;
51584;SDS011;37669;50.312;18.670;2022-12-29T08:48:50;45.25;;;26.80;;
51584;SDS011;37669;50.312;18.670;2022-12-29T08:51:17;62.95;;;30.45;;
51584;SDS011;37669;50.312;18.670;2022-12-29T08:53:44;77.25;;;35.72;;
51584;SDS011;37669;50.312;18.670;2022-12-29T08:56:11;35.50;;;18.10;;
51584;SDS011;37669;50.312;18.670;2022-12-29T08:58:39;52.17;;;20.98;;
51584;SDS011;37669;50.312;18.670;2022-12-29T09:01:07;37.45;;;19.90;;
51584;SDS011;37669;50.312;18.670;2022-12-29T09:03:35;32.15;;;18.45;;
51584;SDS011;37669;50.312;18.670;2022-12-29T09:06:02;33.38;;;19.63;;
51584;SDS011;37669;50.312;18.670;2022-12-29T09:08:29;32.28;;;20.58;;
51584;SDS011;37669;50.312;18.670;2022-12-29T09:11:04;35.55;;;20.42;;
51584;SDS011;37669;50.312;18.670;2022-12-29T09:13:32;43.05;;;22.02;;
51584;SDS011;37669;50.312;18.670;2022-12-29T09:16:01;34.47;;;20.55;;
51584;SDS011;37669;50.312;18.670;2022-12-29T09:18:29;62.47;;;21.65;;
51584;SDS011;37669;50.312;18.670;2022-12-29T09:20:56;54.45;;;22.55;;
51584;SDS011;37669;50.312;18.670;2022-12-29T09:23:24;43.90;;;20.48;;
51584;SDS011;37669;50.312;18.670;2022-12-29T09:25:52;35.13;;;18.73;;
51584;SDS011;37669;50.312;18.670;2022-12-29T09:28:19;31.50;;;17.33;;
51584;SDS011;37669;50.312;18.670;2022-12-29T09:30:46;34.95;;;17.80;;
51584;SDS011;37669;50.312;18.670;2022-12-29T09:33:15;42.85;;;19.02;;
51584;SDS011;37669;50.312;18.670;2022-12-29T09:35:42;34.75;;;17.83;;
51584;SDS011;37669;50.312;18.670;2022-12-29T09:38:10;41.10;;;22.10;;
51584;SDS011;37669;50.312;18.670;2022-12-29T09:40:38;41.45;;;20.38;;
51584;SDS011;37669;50.312;18.670;2022-12-29T09:43:12;29.27;;;18.35;;
51584;SDS011;37669;50.312;18.670;2022-12-29T09:46:13;25.50;;;16.80;;
51584;SDS011;37669;50.312;18.670;2022-12-29T09:48:51;29.08;;;15.27;;
51584;SDS011;37669;50.312;18.670;2022-12-29T09:51:26;36.88;;;15.63;;
51584;SDS011;37669;50.312;18.670;2022-12-29T09:53:55;27.42;;;17.30;;
51584;SDS011;37669;50.312;18.670;2022-12-29T09:56:25;29.70;;;17.35;;
51584;SDS011;37669;50.312;18.670;2022-12-29T09:58:54;46.33;;;20.17;;
51584;SDS011;37669;50.312;18.670;2022-12-29T10:01:27;37.50;;;18.05;;
51584;SDS011;37669;50.312;18.670;2022-12-29T10:04:00;21.58;;;15.98;;
51584;SDS011;37669;50.312;18.670;2022-12-29T10:06:32;25.95;;;16.75;;
51584;SDS011;37669;50.312;18.670;2022-12-29T10:09:08;31.63;;;19.00;;
51584;SDS011;37669;50.312;18.670;2022-12-29T10:11:49;34.55;;;16.77;;
51584;SDS011;37669;50.312;18.670;2022-12-29T10:14:35;25.15;;;16.52;;
51584;SDS011;37669;50.312;18.670;2022-12-29T10:17:20;40.42;;;18.00;;
51584;SDS011;37669;50.312;18.670;2022-12-29T10:19:59;26.88;;;17.52;;
51584;SDS011;37669;50.312;18.670;2022-12-29T10:22:39;25.08;;;16.92;;
51584;SDS011;37669;50.312;18.670;2022-12-29T10:25:20;26.38;;;16.42;;
51584;SDS011;37669;50.312;18.670;2022-12-29T10:27:51;26.77;;;16.13;;
51584;SDS011;37669;50.312;18.670;2022-12-29T10:30:23;28.85;;;17.63;;
51584;SDS011;37669;50.312;18.670;2022-12-29T10:32:51;32.45;;;18.38;;
51584;SDS011;37669;50.312;18.670;2022-12-29T10:35:23;34.38;;;17.63;;
51584;SDS011;37669;50.312;18.670;2022-12-29T10:37:53;34.13;;;18.88;;
51584;SDS011;37669;50.312;18.670;2022-12-29T10:40:25;31.67;;;17.35;;
51584;SDS011;37669;50.312;18.670;2022-12-29T10:42:58;23.65;;;17.13;;
51584;SDS011;37669;50.312;18.670;2022-12-29T10:45:26;38.03;;;18.33;;
51584;SDS011;37669;50.312;18.670;2022-12-29T10:47:59;26.10;;;16.88;;
51584;SDS011;37669;50.312;18.670;2022-12-29T10:50:31;31.52;;;19.63;;
51584;SDS011;37669;50.312;18.670;2022-12-29T10:52:59;33.45;;;21.98;;
51584;SDS011;37669;50.312;18.670;2022-12-29T10:55:30;42.33;;;19.98;;
51584;SDS011;37669;50.312;18.670;2022-12-29T10:58:02;43.83;;;23.30;;
51584;SDS011;37669;50.312;18.670;2022-12-29T11:00:32;40.58;;;21.20;;
51584;SDS011;37669;50.312;18.670;2022-12-29T11:03:16;35.22;;;19.00;;
51584;SDS011;37669;50.312;18.670;2022-12-29T11:06:01;34.40;;;19.23;;
51584;SDS011;37669;50.312;18.670;2022-12-29T11:08:35;23.05;;;14.30;;
51584;SDS011;37669;50.312;18.670;2022-12-29T11:11:05;40.15;;;18.52;;
51584;SDS011;37669;50.312;18.670;2022-12-29T11:13:35;35.35;;;16.63;;
51584;SDS011;37669;50.312;18.670;2022-12-29T11:16:13;26.65;;;16.05;;
51584;SDS011;37669;50.312;18.670;2022-12-29T11:18:40;40.15;;;19.83;;
51584;SDS011;37669;50.312;18.670;2022-12-29T11:21:24;38.33;;;16.83;;
51584;SDS011;37669;50.312;18.670;2022-12-29T11:23:57;26.42;;;17.88;;
51584;SDS011;37669;50.312;18.670;2022-12-29T11:26:27;43.10;;;15.77;;
51584;SDS011;37669;50.312;18.670;2022-12-29T11:29:08;34.70;;;16.02;;
51584;SDS011;37669;50.312;18.670;2022-12-29T11:31:46;25.55;;;15.00;;
51584;SDS011;37669;50.312;18.670;2022-12-29T11:34:19;27.55;;;16.20;;
51584;SDS011;37669;50.312;18.670;2022-12-29T11:36:50;20.60;;;15.65;;
51584;SDS011;37669;50.312;18.670;2022-12-29T11:42:06;29.02;;;17.17;;
51584;SDS011;37669;50.312;18.670;2022-12-29T11:44:42;23.85;;;16.33;;
51584;SDS011;37669;50.312;18.670;2022-12-29T11:47:12;27.20;;;17.10;;
51584;SDS011;37669;50.312;18.670;2022-12-29T11:49:49;27.10;;;16.35;;
51584;SDS011;37669;50.312;18.670;2022-12-29T11:52:21;27.15;;;16.52;;
51584;SDS011;37669;50.312;18.670;2022-12-29T11:54:50;29.20;;;16.52;;
51584;SDS011;37669;50.312;18.670;2022-12-29T11:57:18;23.63;;;15.38;;
51584;SDS011;37669;50.312;18.670;2022-12-29T11:59:49;27.45;;;15.13;;
51584;SDS011;37669;50.312;18.670;2022-12-29T12:02:22;25.70;;;14.77;;
51584;SDS011;37669;50.312;18.670;2022-12-29T12:05:01;20.55;;;15.13;;
51584;SDS011;37669;50.312;18.670;2022-12-29T12:10:08;39.28;;;16.40;;
51584;SDS011;37669;50.312;18.670;2022-12-29T12:12:47;23.80;;;16.80;;
51584;SDS011;37669;50.312;18.670;2022-12-29T12:15:20;31.48;;;15.75;;
51584;SDS011;37669;50.312;18.670;2022-12-29T12:17:52;31.65;;;18.00;;
51584;SDS011;37669;50.312;18.670;2022-12-29T12:20:22;29.83;;;17.25;;
51584;SDS011;37669;50.312;18.670;2022-12-29T12:22:58;30.50;;;18.50;;
51584;SDS011;37669;50.312;18.670;2022-12-29T12:25:37;36.90;;;19.25;;
51584;SDS011;37669;50.312;18.670;2022-12-29T12:28:09;31.83;;;18.42;;
51584;SDS011;37669;50.312;18.670;2022-12-29T12:30:42;40.53;;;19.20;;
51584;SDS011;37669;50.312;18.670;2022-12-29T12:33:14;28.58;;;17.77;;
51584;SDS011;37669;50.312;18.670;2022-12-29T12:35:47;57.42;;;19.65;;
51584;SDS011;37669;50.312;18.670;2022-12-29T12:38:27;27.05;;;18.55;;
51584;SDS011;37669;50.312;18.670;2022-12-29T12:41:01;36.38;;;18.20;;
51584;SDS011;37669;50.312;18.670;2022-12-29T12:43:39;31.98;;;17.52;;
51584;SDS011;37669;50.312;18.670;2022-12-29T12:49:15;30.70;;;16.83;;
51584;SDS011;37669;50.312;18.670;2022-12-29T12:52:15;60.83;;;18.17;;
51584;SDS011;37669;50.312;18.670;2022-12-29T12:55:00;30.05;;;17.38;;
51584;SDS011;37669;50.312;18.670;2022-12-29T12:57:40;34.85;;;16.08;;
51584;SDS011;37669;50.312;18.670;2022-12-29T13:00:16;32.95;;;17.83;;
51584;SDS011;37669;50.312;18.670;2022-12-29T13:02:49;28.83;;;15.82;;
51584;SDS011;37669;50.312;18.670;2022-12-29T13:05:38;37.60;;;18.67;;
51584;SDS011;37669;50.312;18.670;2022-12-29T13:08:30;33.28;;;17.67;;
51584;SDS011;37669;50.312;18.670;2022-12-29T13:11:34;27.58;;;17.95;;
51584;SDS011;37669;50.312;18.670;2022-12-29T13:14:14;32.28;;;18.77;;
51584;SDS011;37669;50.312;18.670;2022-12-29T13:16:49;28.17;;;17.10;;
51584;SDS011;37669;50.312;18.670;2022-12-29T13:19:24;30.33;;;19.25;;
51584;SDS011;37669;50.312;18.670;2022-12-29T13:22:01;39.97;;;20.08;;
51584;SDS011;37669;50.312;18.670;2022-12-29T13:24:47;27.05;;;16.55;;
51584;SDS011;37669;50.312;18.670;2022-12-29T13:27:23;36.00;;;17.30;;
51584;SDS011;37669;50.312;18.670;2022-12-29T13:30:00;26.23;;;18.58;;
51584;SDS011;37669;50.312;18.670;2022-12-29T13:32:33;27.65;;;18.70;;
51584;SDS011;37669;50.312;18.670;2022-12-29T13:35:22;39.88;;;19.08;;
51584;SDS011;37669;50.312;18.670;2022-12-29T13:37:58;33.70;;;18.37;;
51584;SDS011;37669;50.312;18.670;2022-12-29T13:40:32;36.85;;;19.40;;
51584;SDS011;37669;50.312;18.670;2022-12-29T13:43:05;28.63;;;18.85;;
51584;SDS011;37669;50.312;18.670;2022-12-29T13:45:33;29.17;;;19.98;;
51584;SDS011;37669;50.312;18.670;2022-12-29T13:48:02;34.40;;;20.17;;
51584;SDS011;37669;50.312;18.670;2022-12-29T13:50:34;38.60;;;21.13;;
51584;SDS011;37669;50.312;18.670;2022-12-29T13:53:11;37.30;;;21.75;;
51584;SDS011;37669;50.312;18.670;2022-12-29T13:55:47;37.58;;;22.13;;
51584;SDS011;37669;50.312;18.670;2022-12-29T13:58:24;42.92;;;21.83;;
51584;SDS011;37669;50.312;18.670;2022-12-29T14:03:32;44.53;;;20.65;;
51584;SDS011;37669;50.312;18.670;2022-12-29T14:06:19;42.85;;;21.15;;
51584;SDS011;37669;50.312;18.670;2022-12-29T14:08:49;40.20;;;21.63;;
51584;SDS011;37669;50.312;18.670;2022-12-29T14:11:20;30.65;;;20.85;;
51584;SDS011;37669;50.312;18.670;2022-12-29T14:13:52;40.38;;;21.15;;
51584;SDS011;37669;50.312;18.670;2022-12-29T14:16:26;42.60;;;23.15;;
51584;SDS011;37669;50.312;18.670;2022-12-29T14:18:56;41.70;;;23.65;;
51584;SDS011;37669;50.312;18.670;2022-12-29T14:21:32;35.97;;;23.45;;
51584;SDS011;37669;50.312;18.670;2022-12-29T14:33:17;34.55;;;23.00;;
51584;SDS011;37669;50.312;18.670;2022-12-29T14:35:46;43.08;;;23.63;;
51584;SDS011;37669;50.312;18.670;2022-12-29T14:38:21;36.67;;;21.73;;
51584;SDS011;37669;50.312;18.670;2022-12-29T14:40:51;32.70;;;21.50;;
51584;SDS011;37669;50.312;18.670;2022-12-29T14:43:20;31.20;;;21.33;;
51584;SDS011;37669;50.312;18.670;2022-12-29T14:45:56;31.02;;;20.98;;
51584;SDS011;37669;50.312;18.670;2022-12-29T14:48:34;40.78;;;25.17;;
51584;SDS011;37669;50.312;18.670;2022-12-29T14:51:18;48.33;;;28.10;;
51584;SDS011;37669;50.312;18.670;2022-12-29T14:53:53;46.83;;;24.98;;
51584;SDS011;37669;50.312;18.670;2022-12-29T14:56:23;35.58;;;21.85;;
51584;SDS011;37669;50.312;18.670;2022-12-29T14:58:52;44.55;;;25.83;;
51584;SDS011;37669;50.312;18.670;2022-12-29T15:01:34;41.42;;;24.42;;
51584;SDS011;37669;50.312;18.670;2022-12-29T15:04:13;41.35;;;25.20;;